createdAt,value
2022-10-24T00:01:38.327Z,100.00
2022-10-24T00:06:39.074Z,100.00
2022-10-24T00:09:08.830Z,100.00
2022-10-24T00:11:38.523Z,100.00
2022-10-24T00:14:06.416Z,100.00
2022-10-24T00:16:35.753Z,100.00
2022-10-24T00:19:03.655Z,100.00
2022-10-24T00:21:31.519Z,100.00
2022-10-24T00:23:59.377Z,100.00
2022-10-24T00:26:30.080Z,100.00
2022-10-24T00:28:57.969Z,100.00
2022-10-24T00:31:25.839Z,100.00
2022-10-24T00:33:53.720Z,100.00
2022-10-24T00:36:23.277Z,100.00
2022-10-24T00:38:52.446Z,100.00
2022-10-24T00:41:22.625Z,100.00
2022-10-24T00:43:51.872Z,100.00
2022-10-24T00:46:21.618Z,100.00
2022-10-24T00:48:53.199Z,100.00
2022-10-24T00:51:24.625Z,100.00
2022-10-24T00:53:55.314Z,100.00
2022-10-24T00:56:26.068Z,100.00
2022-10-24T00:58:57.908Z,100.00
2022-10-24T01:01:26.091Z,100.00
2022-10-24T01:03:53.937Z,100.00
2022-10-24T01:06:35.642Z,100.00
2022-10-24T01:09:14.600Z,100.00
2022-10-24T01:11:57.681Z,100.00
2022-10-24T01:14:51.711Z,100.00
2022-10-24T01:17:26.748Z,100.00
2022-10-24T01:20:18.638Z,100.00
2022-10-24T01:23:02.307Z,100.00
2022-10-24T01:25:42.224Z,100.00
2022-10-24T01:28:15.661Z,100.00
2022-10-24T01:30:48.617Z,100.00
2022-10-24T01:33:24.192Z,100.00
2022-10-24T01:35:56.931Z,100.00
2022-10-24T01:38:31.724Z,100.00
2022-10-24T01:41:04.712Z,100.00
2022-10-24T01:43:37.226Z,100.00
2022-10-24T01:46:10.993Z,100.00
2022-10-24T01:48:42.568Z,100.00
2022-10-24T01:51:12.891Z,100.00
2022-10-24T01:53:43.403Z,100.00
2022-10-24T01:56:11.575Z,100.00
2022-10-24T01:58:39.431Z,100.00
2022-10-24T02:01:13.449Z,100.00
2022-10-24T02:03:45.874Z,100.00
2022-10-24T02:06:20.328Z,100.00
2022-10-24T02:08:54.139Z,100.00
2022-10-24T02:11:22.039Z,100.00
2022-10-24T02:13:57.467Z,100.00
2022-10-24T02:16:27.073Z,100.00
2022-10-24T02:18:57.447Z,100.00
2022-10-24T02:21:32.922Z,100.00
2022-10-24T02:24:04.327Z,100.00
2022-10-24T02:26:35.660Z,100.00
2022-10-24T02:29:08.440Z,100.00
2022-10-24T02:31:42.460Z,100.00
2022-10-24T02:34:13.881Z,100.00
2022-10-24T02:36:45.152Z,100.00
2022-10-24T02:39:14.073Z,100.00
2022-10-24T02:41:44.669Z,100.00
2022-10-24T02:44:15.507Z,100.00
2022-10-24T02:46:47.484Z,100.00
2022-10-24T02:49:15.777Z,100.00
2022-10-24T02:51:45.964Z,100.00
2022-10-24T02:54:14.328Z,100.00
2022-10-24T02:56:47.087Z,100.00
2022-10-24T02:59:15.049Z,100.00
2022-10-24T03:01:44.347Z,100.00
2022-10-24T03:04:12.245Z,100.00
2022-10-24T03:06:40.079Z,100.00
2022-10-24T03:09:07.934Z,100.00
2022-10-24T03:11:35.960Z,100.00
2022-10-24T03:14:04.055Z,100.00
2022-10-24T03:16:32.009Z,100.00
2022-10-24T03:19:01.327Z,100.00
2022-10-24T03:21:29.163Z,100.00
2022-10-24T03:23:57.036Z,100.00
2022-10-24T03:26:24.919Z,100.00
2022-10-24T03:28:52.778Z,100.00
2022-10-24T03:31:20.656Z,100.00
2022-10-24T03:33:48.532Z,100.00
2022-10-24T03:36:17.955Z,100.00
2022-10-24T03:38:45.821Z,100.00
2022-10-24T03:41:13.668Z,100.00
2022-10-24T03:43:41.521Z,100.00
2022-10-24T03:46:09.475Z,100.00
2022-10-24T03:48:37.516Z,100.00
2022-10-24T03:51:05.452Z,100.00
2022-10-24T03:53:34.631Z,100.00
2022-10-24T03:56:02.562Z,100.00
2022-10-24T03:58:30.436Z,100.00
2022-10-24T04:00:59.409Z,100.00
2022-10-24T04:03:28.134Z,100.00
2022-10-24T04:05:56.088Z,100.00
2022-10-24T04:08:23.968Z,100.00
2022-10-24T04:10:53.209Z,100.00
2022-10-24T04:13:21.099Z,100.00
2022-10-24T04:15:48.996Z,100.00
2022-10-24T04:18:16.835Z,100.00
2022-10-24T04:20:44.677Z,100.00
2022-10-24T04:23:12.540Z,100.00
2022-10-24T04:25:41.003Z,100.00
2022-10-24T04:28:10.288Z,100.00
2022-10-24T04:30:38.189Z,100.00
2022-10-24T04:33:06.048Z,100.00
2022-10-24T04:35:33.897Z,100.00
2022-10-24T04:38:01.760Z,100.00
2022-10-24T04:40:29.600Z,100.00
2022-10-24T04:42:57.467Z,100.00
2022-10-24T04:45:26.641Z,100.00
2022-10-24T04:47:54.469Z,100.00
2022-10-24T04:50:22.292Z,100.00
2022-10-24T04:52:50.163Z,100.00
2022-10-24T04:55:18.803Z,100.00
2022-10-24T04:57:46.915Z,100.00
2022-10-24T05:00:15.658Z,100.00
2022-10-24T05:02:45.185Z,100.00
2022-10-24T05:05:13.433Z,100.00
2022-10-24T05:07:41.261Z,100.00
2022-10-24T05:10:09.923Z,100.00
2022-10-24T05:12:38.286Z,100.00
2022-10-24T05:15:07.660Z,100.00
2022-10-24T05:17:36.015Z,100.00
2022-10-24T05:20:06.143Z,100.00
2022-10-24T05:22:34.091Z,100.00
2022-10-24T05:25:01.980Z,100.00
2022-10-24T05:27:29.822Z,100.00
2022-10-24T05:29:57.827Z,100.00
2022-10-24T05:32:26.174Z,100.00
2022-10-24T05:34:54.152Z,100.00
2022-10-24T05:37:23.454Z,100.00
2022-10-24T05:39:51.356Z,100.00
2022-10-24T05:42:19.231Z,100.00
2022-10-24T05:44:47.107Z,100.00
2022-10-24T05:47:15.003Z,100.00
2022-10-24T05:49:42.988Z,100.00
2022-10-24T05:52:10.819Z,100.00
2022-10-24T05:54:55.208Z,100.00
2022-10-24T05:57:28.259Z,100.00
2022-10-24T05:59:56.087Z,100.00
2022-10-24T06:02:24.220Z,100.00
2022-10-24T06:04:52.137Z,100.00
2022-10-24T06:07:20.104Z,100.00
2022-10-24T06:09:49.322Z,100.00
2022-10-24T06:12:17.183Z,100.00
2022-10-24T06:14:45.762Z,100.00
2022-10-24T06:17:13.627Z,100.00
2022-10-24T06:19:41.662Z,99.66
2022-10-24T06:22:10.167Z,97.98
2022-10-24T06:24:39.297Z,95.75
2022-10-24T06:27:08.541Z,94.37
2022-10-24T06:29:36.820Z,92.33
2022-10-24T06:32:04.889Z,91.54
2022-10-24T06:34:32.889Z,90.51
2022-10-24T06:37:00.776Z,88.68
2022-10-24T06:39:28.700Z,86.73
2022-10-24T06:41:56.625Z,84.08
2022-10-24T06:44:25.931Z,83.36
2022-10-24T06:46:53.833Z,81.53
2022-10-24T06:49:21.699Z,81.82
2022-10-24T06:51:49.558Z,80.89
2022-10-24T06:54:17.529Z,79.28
2022-10-24T06:56:45.474Z,78.68
2022-10-24T06:59:17.363Z,77.99
2022-10-24T07:01:46.832Z,76.37
2022-10-24T07:04:14.844Z,76.32
2022-10-24T07:06:42.695Z,75.51
2022-10-24T07:09:15.148Z,74.84
2022-10-24T07:11:43.633Z,74.54
2022-10-24T07:14:11.886Z,73.36
2022-10-24T07:16:40.268Z,73.47
2022-10-24T07:19:09.903Z,72.37
2022-10-24T07:21:38.783Z,72.59
2022-10-24T07:24:07.794Z,72.23
2022-10-24T07:26:35.637Z,72.17
2022-10-24T07:29:04.610Z,72.03
2022-10-24T07:31:34.966Z,71.52
2022-10-24T07:34:04.823Z,70.14
2022-10-24T07:36:34.353Z,67.82
2022-10-24T07:39:02.324Z,67.84
2022-10-24T07:41:32.162Z,67.11
2022-10-24T07:44:02.240Z,66.66
2022-10-24T07:46:30.570Z,67.51
2022-10-24T07:48:58.723Z,67.53
2022-10-24T07:51:28.548Z,66.38
2022-10-24T07:53:58.297Z,65.28
2022-10-24T07:56:26.438Z,64.21
2022-10-24T07:58:55.126Z,63.22
2022-10-24T08:01:25.329Z,62.87
2022-10-24T08:03:53.344Z,64.00
2022-10-24T08:06:23.279Z,64.20
2022-10-24T08:08:51.400Z,62.55
2022-10-24T08:11:22.272Z,63.42
2022-10-24T08:13:51.214Z,63.27
2022-10-24T08:16:22.004Z,62.47
2022-10-24T08:18:52.095Z,62.32
2022-10-24T08:21:21.428Z,60.79
2022-10-24T08:23:52.164Z,60.18
2022-10-24T08:26:23.591Z,59.72
2022-10-24T08:28:51.883Z,59.59
2022-10-24T08:31:22.114Z,60.16
2022-10-24T08:33:52.999Z,59.74
2022-10-24T08:36:24.319Z,57.93
2022-10-24T08:38:52.216Z,58.26
2022-10-24T08:41:27.862Z,58.42
2022-10-24T08:43:57.460Z,57.78
2022-10-24T08:46:38.351Z,59.38
2022-10-24T08:49:15.205Z,58.46
2022-10-24T08:51:47.212Z,57.86
2022-10-24T08:54:19.574Z,56.91
2022-10-24T08:56:49.482Z,57.10
2022-10-24T08:59:17.431Z,57.17
2022-10-24T09:01:49.637Z,57.17
2022-10-24T09:04:21.111Z,56.10
2022-10-24T09:06:50.218Z,56.10
2022-10-24T09:09:24.385Z,55.08
2022-10-24T09:11:55.990Z,54.39
2022-10-24T09:14:27.428Z,54.68
2022-10-24T09:16:59.918Z,55.12
2022-10-24T09:19:30.397Z,56.69
2022-10-24T09:22:00.137Z,54.02
2022-10-24T09:24:34.492Z,55.10
2022-10-24T09:27:06.908Z,54.41
2022-10-24T09:29:35.141Z,53.86
2022-10-24T09:32:04.333Z,53.34
2022-10-24T09:34:32.233Z,54.33
2022-10-24T09:37:00.185Z,54.50
2022-10-24T09:39:31.299Z,52.67
2022-10-24T09:42:00.882Z,52.05
2022-10-24T09:44:34.464Z,51.96
2022-10-24T09:47:04.528Z,51.71
2022-10-24T09:49:36.568Z,51.47
2022-10-24T09:52:09.788Z,50.98
2022-10-24T09:54:38.050Z,49.48
2022-10-24T09:57:13.453Z,50.27
2022-10-24T09:59:45.189Z,50.13
2022-10-24T10:02:21.009Z,50.77
2022-10-24T10:04:50.234Z,50.15
2022-10-24T10:07:20.386Z,50.63
2022-10-24T10:09:56.520Z,50.70
2022-10-24T10:12:30.401Z,50.77
2022-10-24T10:15:00.599Z,49.35
2022-10-24T10:17:31.336Z,48.92
2022-10-24T10:19:59.834Z,48.14
2022-10-24T10:22:30.229Z,48.50
2022-10-24T10:24:59.216Z,48.27
2022-10-24T10:27:32.103Z,48.93
2022-10-24T10:30:22.101Z,48.24
2022-10-24T10:33:12.666Z,48.25
2022-10-24T10:35:49.530Z,47.71
2022-10-24T10:38:37.316Z,47.45
2022-10-24T10:41:08.940Z,47.96
2022-10-24T10:43:44.228Z,47.15
2022-10-24T10:46:24.123Z,47.53
2022-10-24T10:49:03.966Z,47.08
2022-10-24T10:51:43.529Z,47.24
2022-10-24T10:54:25.161Z,46.59
2022-10-24T10:56:55.628Z,46.68
2022-10-24T10:59:40.247Z,46.36
2022-10-24T11:02:28.212Z,45.49
2022-10-24T11:05:05.551Z,45.52
2022-10-24T11:07:41.958Z,44.65
2022-10-24T11:10:14.030Z,44.97
2022-10-24T11:12:44.843Z,44.67
2022-10-24T11:15:21.374Z,45.02
2022-10-24T11:17:56.953Z,43.77
2022-10-24T11:20:28.984Z,45.50
2022-10-24T11:23:01.587Z,45.17
2022-10-24T11:25:37.420Z,45.15
2022-10-24T11:28:13.560Z,44.97
2022-10-24T11:30:48.366Z,44.79
2022-10-24T11:33:21.247Z,44.65
2022-10-24T11:36:08.341Z,43.92
2022-10-24T11:38:41.989Z,44.52
2022-10-24T11:41:48.144Z,44.22
2022-10-24T11:44:31.520Z,44.48
2022-10-24T11:47:08.607Z,44.10
2022-10-24T11:49:43.131Z,44.40
2022-10-24T11:52:18.180Z,44.24
2022-10-24T11:54:52.766Z,43.40
2022-10-24T11:57:25.006Z,43.29
2022-10-24T11:59:54.352Z,42.96
2022-10-24T12:03:18.980Z,43.21
2022-10-24T12:06:01.526Z,43.03
2022-10-24T12:08:48.743Z,43.31
2022-10-24T12:11:40.328Z,43.05
2022-10-24T12:14:27.061Z,42.53
2022-10-24T12:17:15.909Z,42.72
2022-10-24T12:19:46.644Z,43.13
2022-10-24T12:22:21.939Z,42.41
2022-10-24T12:24:50.509Z,42.71
2022-10-24T12:27:28.295Z,42.99
2022-10-24T12:30:05.954Z,43.77
2022-10-24T12:32:40.608Z,43.18
2022-10-24T12:35:44.401Z,42.99
2022-10-24T12:38:20.262Z,43.42
2022-10-24T12:40:52.189Z,42.70
2022-10-24T12:43:44.319Z,42.57
2022-10-24T12:46:53.663Z,42.64
2022-10-24T12:49:28.347Z,42.43
2022-10-24T12:51:57.128Z,42.34
2022-10-24T12:54:43.044Z,42.31
2022-10-24T12:57:23.896Z,42.32
2022-10-24T12:59:53.808Z,41.58
2022-10-24T13:02:48.319Z,42.21
2022-10-24T13:05:34.963Z,43.29
2022-10-24T13:08:19.094Z,43.04
2022-10-24T13:10:59.060Z,43.10
2022-10-24T13:14:06.533Z,42.48
2022-10-24T13:16:45.277Z,42.92
2022-10-24T13:19:18.511Z,42.77
2022-10-24T13:21:49.247Z,42.43
2022-10-24T13:24:25.800Z,42.75
2022-10-24T13:27:38.391Z,42.55
2022-10-24T13:30:34.699Z,42.85
2022-10-24T13:33:41.031Z,42.64
2022-10-24T13:36:16.653Z,43.15
2022-10-24T13:38:49.555Z,43.21
2022-10-24T13:41:24.850Z,43.33
2022-10-24T13:43:56.165Z,44.02
2022-10-24T13:46:34.218Z,43.93
2022-10-24T13:49:04.231Z,44.32
2022-10-24T13:51:38.136Z,44.95
2022-10-24T13:54:12.277Z,44.64
2022-10-24T13:56:44.342Z,44.75
2022-10-24T13:59:30.474Z,44.64
2022-10-24T14:02:03.091Z,45.48
2022-10-24T14:04:32.000Z,45.81
2022-10-24T14:07:03.667Z,45.84
2022-10-24T14:09:32.157Z,45.63
2022-10-24T14:12:00.051Z,45.55
2022-10-24T14:14:31.326Z,45.50
2022-10-24T14:17:23.315Z,45.58
2022-10-24T14:19:55.552Z,46.17
2022-10-24T14:22:26.175Z,46.30
2022-10-24T14:24:54.080Z,45.69
2022-10-24T14:27:22.368Z,46.08
2022-10-24T14:30:01.842Z,45.70
2022-10-24T14:32:32.326Z,46.39
2022-10-24T14:37:37.612Z,47.02
2022-10-24T14:40:07.160Z,47.11
2022-10-24T14:42:35.710Z,47.39
2022-10-24T14:45:03.615Z,47.52
2022-10-24T14:47:38.921Z,48.39
2022-10-24T14:50:37.988Z,48.59
2022-10-24T14:53:06.568Z,49.49
2022-10-24T14:55:34.782Z,49.80
2022-10-24T14:58:02.642Z,49.46
2022-10-24T15:00:39.361Z,49.84
2022-10-24T15:03:11.096Z,50.56
2022-10-24T15:05:41.487Z,50.73
2022-10-24T15:08:28.889Z,51.23
2022-10-24T15:11:15.164Z,51.37
2022-10-24T15:13:59.974Z,52.25
2022-10-24T15:16:37.740Z,52.20
2022-10-24T15:19:13.696Z,52.56
2022-10-24T15:21:47.309Z,53.16
2022-10-24T15:24:22.917Z,53.91
2022-10-24T15:26:50.879Z,54.41
2022-10-24T15:29:21.995Z,55.08
2022-10-24T15:31:51.829Z,55.60
2022-10-24T15:34:22.822Z,55.79
2022-10-24T15:36:53.125Z,56.46
2022-10-24T15:39:24.403Z,56.82
2022-10-24T15:41:52.853Z,57.15
2022-10-24T15:44:24.970Z,57.77
2022-10-24T15:46:52.796Z,57.98
2022-10-24T15:49:22.307Z,58.35
2022-10-24T15:51:51.427Z,58.81
2022-10-24T15:54:21.255Z,59.04
2022-10-24T15:56:49.314Z,59.41
2022-10-24T15:59:18.543Z,59.76
2022-10-24T16:01:50.750Z,59.88
2022-10-24T16:04:20.170Z,60.14
2022-10-24T16:06:49.683Z,60.81
2022-10-24T16:09:20.257Z,61.01
2022-10-24T16:11:48.604Z,61.64
2022-10-24T16:14:17.935Z,62.47
2022-10-24T16:16:45.826Z,62.89
2022-10-24T16:19:13.717Z,63.41
2022-10-24T16:21:42.631Z,63.67
2022-10-24T16:24:14.057Z,64.07
2022-10-24T16:26:42.209Z,64.67
2022-10-24T16:29:10.036Z,65.17
2022-10-24T16:31:38.375Z,65.17
2022-10-24T16:34:07.377Z,65.93
2022-10-24T16:36:35.317Z,65.79
2022-10-24T16:39:03.634Z,67.40
2022-10-24T16:41:33.002Z,68.79
2022-10-24T16:44:01.037Z,69.98
2022-10-24T16:46:29.323Z,70.73
2022-10-24T16:48:58.064Z,71.33
2022-10-24T16:51:32.013Z,71.53
2022-10-24T16:54:00.376Z,71.67
2022-10-24T16:56:28.349Z,72.15
2022-10-24T16:58:57.636Z,72.79
2022-10-24T17:01:27.547Z,73.62
2022-10-24T17:03:55.844Z,74.92
2022-10-24T17:06:24.005Z,75.66
2022-10-24T17:08:52.603Z,76.03
2022-10-24T17:11:43.683Z,75.58
2022-10-24T17:14:10.371Z,75.92
2022-10-24T17:16:38.236Z,76.05
2022-10-24T17:19:15.701Z,76.77
2022-10-24T17:21:46.780Z,77.18
2022-10-24T17:24:16.219Z,77.29
2022-10-24T17:26:44.294Z,77.26
2022-10-24T17:29:20.274Z,77.63
2022-10-24T17:31:48.505Z,78.21
2022-10-24T17:34:16.635Z,78.70
2022-10-24T17:36:48.406Z,79.08
2022-10-24T17:39:22.259Z,79.63
2022-10-24T17:41:53.786Z,80.31
2022-10-24T17:44:23.716Z,80.78
2022-10-24T17:46:55.905Z,81.68
2022-10-24T17:49:26.682Z,82.20
2022-10-24T17:51:54.588Z,83.21
2022-10-24T17:54:22.901Z,84.42
2022-10-24T17:56:50.958Z,85.37
2022-10-24T17:59:18.843Z,87.67
2022-10-24T18:01:48.229Z,88.37
2022-10-24T18:04:16.617Z,88.37
2022-10-24T18:06:44.786Z,88.10
2022-10-24T18:09:13.278Z,86.74
2022-10-24T18:11:41.220Z,87.74
2022-10-24T18:14:09.166Z,87.68
2022-10-24T18:16:39.438Z,87.86
2022-10-24T18:19:08.707Z,87.37
2022-10-24T18:21:36.635Z,88.61
2022-10-24T18:24:07.385Z,89.41
2022-10-24T18:26:35.424Z,90.04
2022-10-24T18:29:03.271Z,90.60
2022-10-24T18:31:33.977Z,91.33
2022-10-24T18:34:06.051Z,91.17
2022-10-24T18:36:37.487Z,91.33
2022-10-24T18:39:06.081Z,92.52
2022-10-24T18:41:44.964Z,94.76
2022-10-24T18:44:24.237Z,96.59
2022-10-24T18:46:53.453Z,96.69
2022-10-24T18:49:22.004Z,97.02
2022-10-24T18:52:02.759Z,97.14
2022-10-24T18:54:31.408Z,97.01
2022-10-24T18:57:00.792Z,96.80
2022-10-24T18:59:30.861Z,97.03
2022-10-24T19:02:17.076Z,97.58
2022-10-24T19:04:49.236Z,98.99
2022-10-24T19:07:19.563Z,100.00
2022-10-24T19:09:47.610Z,100.00
2022-10-24T19:12:17.729Z,100.00
2022-10-24T19:14:47.206Z,100.00
2022-10-24T19:17:16.278Z,100.00
2022-10-24T19:19:44.335Z,100.00
2022-10-24T19:22:12.201Z,100.00
2022-10-24T19:24:41.477Z,100.00
2022-10-24T19:27:09.531Z,100.00
2022-10-24T19:29:37.531Z,100.00
2022-10-24T19:32:05.668Z,100.00
2022-10-24T19:34:34.836Z,100.00
2022-10-24T19:37:03.781Z,100.00
2022-10-24T19:39:33.895Z,100.00
2022-10-24T19:42:03.452Z,100.00
2022-10-24T19:44:31.272Z,100.00
2022-10-24T19:46:59.106Z,100.00
2022-10-24T19:49:26.949Z,100.00
2022-10-24T19:51:56.836Z,100.00
2022-10-24T19:54:24.721Z,100.00
2022-10-24T19:56:54.406Z,100.00
2022-10-24T19:59:23.680Z,100.00
2022-10-24T20:01:51.608Z,100.00
2022-10-24T20:04:19.656Z,100.00
2022-10-24T20:06:48.028Z,100.00
2022-10-24T20:09:16.030Z,100.00
2022-10-24T20:11:43.873Z,100.00
2022-10-24T20:14:11.771Z,100.00
2022-10-24T20:16:41.038Z,100.00
2022-10-24T20:19:08.883Z,100.00
2022-10-24T20:21:37.626Z,100.00
2022-10-24T20:24:06.189Z,100.00
2022-10-24T20:26:34.325Z,100.00
2022-10-24T20:29:02.349Z,100.00
2022-10-24T20:31:32.376Z,100.00
2022-10-24T20:34:07.996Z,100.00
2022-10-24T20:36:37.076Z,100.00
2022-10-24T20:39:05.537Z,100.00
2022-10-24T20:41:33.472Z,100.00
2022-10-24T20:44:02.496Z,100.00
2022-10-24T20:46:30.389Z,100.00
2022-10-24T20:48:58.768Z,100.00
2022-10-24T20:51:28.262Z,100.00
2022-10-24T20:53:56.126Z,100.00
2022-10-24T20:56:26.764Z,100.00
2022-10-24T20:58:56.331Z,100.00
2022-10-24T21:01:25.717Z,100.00
2022-10-24T21:03:54.844Z,100.00
2022-10-24T21:06:24.965Z,100.00
2022-10-24T21:08:56.413Z,100.00
2022-10-24T21:11:27.344Z,100.00
2022-10-24T21:13:57.125Z,100.00
2022-10-24T21:16:26.050Z,100.00
2022-10-24T21:18:54.424Z,100.00
2022-10-24T21:21:23.686Z,100.00
2022-10-24T21:23:52.832Z,100.00
2022-10-24T21:26:22.783Z,100.00
2022-10-24T21:28:53.999Z,100.00
2022-10-24T21:31:27.311Z,100.00
2022-10-24T21:33:55.818Z,100.00
2022-10-24T21:36:24.540Z,100.00
2022-10-24T21:38:54.093Z,100.00
2022-10-24T21:41:24.049Z,100.00
2022-10-24T21:43:53.010Z,100.00
2022-10-24T21:46:22.483Z,100.00
2022-10-24T21:48:52.143Z,100.00
2022-10-24T21:51:21.834Z,100.00
2022-10-24T21:53:51.387Z,100.00
2022-10-24T21:56:21.172Z,100.00
2022-10-24T21:58:52.018Z,100.00
2022-10-24T22:01:21.781Z,100.00
2022-10-24T22:03:49.695Z,100.00
2022-10-24T22:06:19.271Z,100.00
2022-10-24T22:08:48.568Z,100.00
2022-10-24T22:11:18.328Z,100.00
2022-10-24T22:13:46.592Z,100.00
2022-10-24T22:16:17.775Z,100.00
2022-10-24T22:18:46.127Z,100.00
2022-10-24T22:21:23.687Z,100.00
2022-10-24T22:23:51.636Z,100.00
2022-10-24T22:26:19.660Z,100.00
2022-10-24T22:28:47.537Z,100.00
2022-10-24T22:31:17.792Z,100.00
2022-10-24T22:33:46.261Z,100.00
2022-10-24T22:36:20.971Z,100.00
2022-10-24T22:38:53.124Z,100.00
2022-10-24T22:41:21.700Z,100.00
2022-10-24T22:43:50.278Z,100.00
2022-10-24T22:46:33.906Z,100.00
2022-10-24T22:51:42.979Z,100.00
2022-10-24T22:54:17.809Z,100.00
2022-10-24T22:56:46.279Z,100.00
2022-10-24T22:59:14.606Z,100.00
2022-10-24T23:01:57.924Z,100.00
2022-10-24T23:04:35.063Z,100.00
2022-10-24T23:07:11.394Z,100.00
2022-10-24T23:09:39.277Z,100.00
2022-10-24T23:12:13.602Z,100.00
2022-10-24T23:14:42.182Z,100.00
2022-10-24T23:17:13.929Z,100.00
2022-10-24T23:19:46.865Z,100.00
2022-10-24T23:22:23.080Z,100.00
2022-10-24T23:24:52.118Z,100.00
2022-10-24T23:27:44.970Z,100.00
2022-10-24T23:30:19.082Z,100.00
2022-10-24T23:32:49.931Z,100.00
2022-10-24T23:35:20.323Z,100.00
2022-10-24T23:37:50.038Z,100.00
2022-10-24T23:40:29.997Z,100.00
2022-10-24T23:42:58.921Z,100.00
2022-10-24T23:45:28.491Z,100.00
2022-10-24T23:48:08.703Z,100.00
2022-10-24T23:50:45.873Z,100.00
2022-10-24T23:53:24.911Z,100.00
2022-10-24T23:55:53.437Z,100.00
2022-10-24T23:58:21.477Z,100.00
